Time;durP1;ratioP1;P1;durP2;ratioP2;P2;SDS_P1;SDS_P2;PMS_P1;PMS_P2;Temp;Humidity;BMP_temperature;BMP_pressure;BME280_temperature;BME280_humidity;BME280_pressure;Samples;Min_cycle;Max_cycle;Signal;HPM_P1;HPM_P2
2023/08/24 00:01:33;;;;;;;10.13;7.97;;;;;;;16.37;95.30;101734.59;5010194;28;20036;-69
2023/08/24 00:04:09;;;;;;;9.30;6.78;;;;;;;16.24;93.44;101737.47;5013889;28;20046;-69
2023/08/24 00:06:58;;;;;;;9.48;5.65;;;;;;;16.08;94.31;101738.72;5000622;28;20066;-69
2023/08/24 00:09:25;;;;;;;13.40;8.23;;;;;;;16.34;95.88;101729.38;5023784;28;20367;-69
2023/08/24 00:11:53;;;;;;;8.48;7.57;;;;;;;16.40;96.10;101739.81;5009847;28;20038;-69
2023/08/24 00:14:18;;;;;;;11.38;7.78;;;;;;;16.24;97.27;101729.53;5013417;28;20026;-69
2023/08/24 00:16:45;;;;;;;7.90;6.80;;;;;;;16.32;94.63;101733.78;5169716;22;20049;-69
2023/08/24 00:21:38;;;;;;;9.38;7.05;;;;;;;16.29;94.95;101729.44;5280636;22;20502;-69
2023/08/24 00:26:39;;;;;;;9.40;6.85;;;;;;;16.40;94.55;101731.88;5547952;22;20445;-69
2023/08/24 00:31:40;;;;;;;8.23;5.70;;;;;;;16.17;92.80;101735.88;2568400;22;20057;-69
2023/08/24 00:36:40;;;;;;;7.07;6.38;;;;;;;15.93;92.20;101724.00;5132004;22;20054;-69
2023/08/24 00:47:51;;;;;;;10.38;6.55;;;;;;;15.96;94.41;101733.66;4871864;26;20384;-69
2023/08/24 00:50:17;;;;;;;9.07;6.55;;;;;;;15.87;92.73;101718.84;5310887;22;20024;-69
2023/08/24 00:52:46;;;;;;;6.85;5.10;;;;;;;15.54;91.25;101718.56;5054280;23;20718;-70
2023/08/24 00:55:13;;;;;;;6.85;6.15;;;;;;;15.59;93.75;101722.00;5437413;23;20053;-69
2023/08/24 00:57:40;;;;;;;9.57;6.88;;;;;;;15.53;95.05;101716.81;5341240;23;20089;-69
2023/08/24 01:00:09;;;;;;;9.88;6.50;;;;;;;15.58;95.55;101707.91;5168086;22;20370;-70
2023/08/24 01:02:35;;;;;;;8.88;6.90;;;;;;;15.64;94.49;101706.91;5400844;22;20049;-69
2023/08/24 01:05:01;;;;;;;9.05;6.93;;;;;;;15.69;95.06;101709.50;5224460;23;20065;-69
2023/08/24 01:15:17;;;;;;;7.68;6.90;;;;;;;15.50;96.16;101717.78;5347542;22;20057;-69
2023/08/24 01:20:15;;;;;;;8.05;7.20;;;;;;;15.50;97.01;101709.84;5028593;28;20050;-70
2023/08/24 01:23:03;;;;;;;15.73;9.93;;;;;;;15.75;97.34;101704.94;4992525;28;20030;-70
2023/08/24 01:25:38;;;;;;;9.90;8.02;;;;;;;15.62;97.76;101710.53;4990920;28;20401;-70
2023/08/24 01:28:05;;;;;;;10.00;7.47;;;;;;;15.50;97.60;101715.13;4994517;28;20041;-70
2023/08/24 01:30:31;;;;;;;10.07;9.07;;;;;;;15.49;99.80;101713.38;4998357;28;20469;-70
2023/08/24 01:32:56;;;;;;;9.98;7.07;;;;;;;15.52;97.76;101707.16;4980260;28;20037;-70
2023/08/24 01:35:22;;;;;;;11.30;8.20;;;;;;;15.47;98.88;101696.66;4980495;28;20187;-70
2023/08/24 01:37:48;;;;;;;9.55;8.45;;;;;;;15.57;99.61;101679.78;4993974;28;20035;-70
2023/08/24 01:40:21;;;;;;;11.02;9.35;;;;;;;15.69;100.00;101689.22;4979988;28;20528;-70
2023/08/24 01:43:03;;;;;;;11.88;9.82;;;;;;;15.73;100.00;101697.94;4996196;28;20032;-70
2023/08/24 01:45:31;;;;;;;13.52;9.13;;;;;;;15.70;100.00;101692.72;4997991;28;20026;-70
2023/08/24 01:47:59;;;;;;;10.55;9.48;;;;;;;15.57;100.00;101694.72;4989808;28;20026;-69
2023/08/24 01:50:25;;;;;;;12.15;9.95;;;;;;;15.58;100.00;101696.47;4997435;28;20160;-69
2023/08/24 01:52:51;;;;;;;10.50;8.82;;;;;;;15.70;100.00;101695.38;4996332;28;20037;-70
2023/08/24 01:55:20;;;;;;;11.02;9.05;;;;;;;15.66;100.00;101701.59;4993805;28;20043;-70
2023/08/24 01:57:46;;;;;;;10.38;8.48;;;;;;;15.71;100.00;101695.34;4998757;28;20029;-70
2023/08/24 02:00:11;;;;;;;11.98;8.68;;;;;;;15.80;100.00;101696.97;5011485;28;20044;-70
2023/08/24 02:02:37;;;;;;;11.15;8.68;;;;;;;15.90;100.00;101693.25;4995084;28;20064;-70
2023/08/24 02:05:03;;;;;;;11.45;8.77;;;;;;;15.92;100.00;101702.00;5011800;28;20056;-69
2023/08/24 02:07:29;;;;;;;10.30;8.77;;;;;;;16.03;100.00;101708.84;4995218;28;20037;-69
2023/08/24 02:09:55;;;;;;;9.68;8.68;;;;;;;16.06;100.00;101714.94;5004557;28;20108;-69
2023/08/24 02:12:20;;;;;;;10.63;9.52;;;;;;;16.18;100.00;101708.53;4992211;28;20136;-69
2023/08/24 02:14:46;;;;;;;11.18;8.68;;;;;;;16.20;100.00;101703.19;4978541;28;20041;-69
2023/08/24 02:17:13;;;;;;;9.43;8.43;;;;;;;16.24;100.00;101703.09;4995546;28;20034;-69
2023/08/24 02:19:41;;;;;;;9.70;8.70;;;;;;;16.06;100.00;101692.91;4961387;28;20046;-69
2023/08/24 02:22:06;;;;;;;11.07;8.93;;;;;;;16.21;100.00;101692.59;4977422;28;20124;-69
2023/08/24 02:24:32;;;;;;;12.23;8.90;;;;;;;16.24;100.00;101676.66;4967770;28;20479;-69
2023/08/24 02:26:57;;;;;;;13.50;8.75;;;;;;;16.26;100.00;101673.97;4977344;28;20059;-69
2023/08/24 02:29:24;;;;;;;12.63;9.35;;;;;;;16.35;99.43;101688.75;4972556;28;20035;-69
2023/08/24 02:31:50;;;;;;;10.50;9.20;;;;;;;16.26;100.00;101698.66;4972931;28;20034;-69
2023/08/24 02:34:16;;;;;;;10.98;8.80;;;;;;;16.37;99.94;101692.25;4980799;28;20027;-69
2023/08/24 02:36:41;;;;;;;9.73;8.70;;;;;;;16.37;100.00;101690.47;4974050;28;20541;-69
2023/08/24 02:39:07;;;;;;;9.40;8.40;;;;;;;16.39;100.00;101685.16;4991973;28;20041;-69
2023/08/24 02:41:34;;;;;;;9.80;8.57;;;;;;;16.28;100.00;101699.47;4991449;28;20052;-69
2023/08/24 02:43:59;;;;;;;13.52;9.25;;;;;;;16.37;100.00;101698.41;4976105;28;20037;-69
2023/08/24 02:46:25;;;;;;;13.02;9.20;;;;;;;16.48;99.44;101689.34;4974811;28;20031;-69
2023/08/24 02:48:50;;;;;;;11.43;9.30;;;;;;;16.49;99.56;101680.53;4989177;28;20033;-69
2023/08/24 02:51:16;;;;;;;10.90;9.38;;;;;;;16.36;100.00;101658.78;4976601;28;20041;-69
2023/08/24 02:53:41;;;;;;;11.20;9.43;;;;;;;16.35;100.00;101652.63;4995954;28;20042;-68
2023/08/24 02:56:07;;;;;;;11.02;9.23;;;;;;;16.37;100.00;101649.94;4996375;28;20037;-69
2023/08/24 02:58:32;;;;;;;14.30;10.20;;;;;;;16.36;100.00;101646.41;4977217;28;20054;-70
2023/08/24 03:00:58;;;;;;;32.67;11.35;;;;;;;16.33;100.00;101645.63;4961834;28;20022;-69
2023/08/24 03:03:24;;;;;;;14.73;11.05;;;;;;;16.38;100.00;101643.75;4987392;28;20385;-69
2023/08/24 03:05:58;;;;;;;12.70;10.45;;;;;;;16.33;100.00;101632.41;4962792;28;20606;-70
2023/08/24 03:08:24;;;;;;;16.50;11.32;;;;;;;16.35;100.00;101623.53;4957807;28;20175;-69
2023/08/24 03:10:52;;;;;;;15.15;12.90;;;;;;;16.30;100.00;101606.88;4979520;28;20112;-69
2023/08/24 03:13:18;;;;;;;14.23;11.82;;;;;;;16.34;100.00;101610.34;4981035;28;20030;-70
2023/08/24 03:15:44;;;;;;;14.23;12.00;;;;;;;16.28;100.00;101580.47;4963246;28;20056;-69
2023/08/24 03:18:13;;;;;;;14.57;12.00;;;;;;;16.24;100.00;101560.28;4978874;28;20077;-69
2023/08/24 03:20:39;;;;;;;16.83;13.10;;;;;;;16.21;100.00;101552.44;5008522;28;20053;-69
2023/08/24 03:23:06;;;;;;;13.63;12.23;;;;;;;16.14;100.00;101548.19;5003082;28;20316;-70
2023/08/24 03:25:35;;;;;;;14.63;13.13;;;;;;;16.09;100.00;101540.38;5009058;28;20132;-69
2023/08/24 03:28:03;;;;;;;18.08;14.20;;;;;;;16.14;100.00;101542.06;5010708;28;20160;-70
2023/08/24 03:30:29;;;;;;;15.82;14.07;;;;;;;16.13;100.00;101535.03;5011131;28;20025;-70
2023/08/24 03:32:54;;;;;;;18.35;14.43;;;;;;;16.14;100.00;101531.47;5010871;28;20040;-71
2023/08/24 03:35:20;;;;;;;17.05;14.95;;;;;;;16.10;100.00;101525.38;5000791;28;20033;-69
2023/08/24 03:37:45;;;;;;;17.77;15.85;;;;;;;16.17;100.00;101508.47;4998256;28;20394;-70
2023/08/24 03:40:12;;;;;;;18.83;17.10;;;;;;;16.22;100.00;101506.59;5011003;28;20034;-71
2023/08/24 03:42:38;;;;;;;20.05;17.95;;;;;;;16.25;100.00;101505.66;5008516;28;20484;-70
2023/08/24 03:45:04;;;;;;;20.77;18.52;;;;;;;16.31;100.00;101510.78;5008978;28;20037;-70
2023/08/24 03:47:31;;;;;;;20.45;17.52;;;;;;;16.33;100.00;101502.81;5011503;28;20037;-70
2023/08/24 03:49:57;;;;;;;20.95;17.92;;;;;;;16.41;100.00;101499.06;4994266;28;20030;-70
2023/08/24 03:52:22;;;;;;;21.77;18.67;;;;;;;16.47;100.00;101497.16;4993967;28;20046;-70
2023/08/24 03:54:48;;;;;;;22.73;18.08;;;;;;;16.52;100.00;101501.44;4993873;28;20037;-70
2023/08/24 03:57:15;;;;;;;22.63;19.30;;;;;;;16.57;100.00;101507.47;5010714;28;20080;-70
2023/08/24 03:59:41;;;;;;;21.75;19.33;;;;;;;16.67;100.00;101509.88;5010690;28;20117;-70
2023/08/24 04:02:06;;;;;;;20.52;18.40;;;;;;;16.74;100.00;101511.44;5024482;28;20461;-70
2023/08/24 04:04:32;;;;;;;21.58;19.02;;;;;;;16.73;100.00;101513.22;4994072;28;20061;-70
2023/08/24 04:06:58;;;;;;;20.65;18.45;;;;;;;16.77;100.00;101509.56;4993516;28;20049;-70
2023/08/24 04:09:24;;;;;;;20.92;17.38;;;;;;;16.82;100.00;101512.09;5010896;28;20073;-70
2023/08/24 04:11:49;;;;;;;20.75;17.65;;;;;;;16.88;100.00;101517.28;5022161;28;20061;-71
2023/08/24 04:14:15;;;;;;;20.60;17.88;;;;;;;16.86;100.00;101532.28;4997042;28;20052;-70
2023/08/24 04:16:41;;;;;;;20.80;18.60;;;;;;;16.89;100.00;101534.00;4991858;28;20045;-71
2023/08/24 04:19:07;;;;;;;20.77;18.67;;;;;;;16.99;100.00;101531.97;5018075;28;20058;-71
2023/08/24 04:21:33;;;;;;;21.15;18.95;;;;;;;16.95;100.00;101523.25;5008717;28;20454;-70
2023/08/24 04:23:59;;;;;;;21.67;18.85;;;;;;;17.03;100.00;101523.91;5013322;28;20022;-70
2023/08/24 04:26:24;;;;;;;21.38;19.10;;;;;;;16.95;100.00;101526.78;4990495;28;20041;-71
2023/08/24 04:28:50;;;;;;;21.27;18.80;;;;;;;16.98;100.00;101520.50;4989633;28;20060;-70
2023/08/24 04:31:15;;;;;;;20.25;18.05;;;;;;;17.01;100.00;101530.16;4989891;28;20030;-70
2023/08/24 04:33:41;;;;;;;21.83;18.13;;;;;;;17.01;100.00;101531.03;5009546;28;20171;-70
2023/08/24 04:36:07;;;;;;;19.65;17.40;;;;;;;17.01;100.00;101533.69;5009018;28;20037;-70
2023/08/24 04:38:32;;;;;;;20.50;18.50;;;;;;;16.97;100.00;101527.59;5008891;28;20034;-70
2023/08/24 04:40:57;;;;;;;22.75;19.63;;;;;;;16.91;100.00;101522.47;4993870;28;20430;-73
2023/08/24 04:43:24;;;;;;;21.48;19.27;;;;;;;16.89;100.00;101528.72;4992481;28;20025;-73
2023/08/24 04:45:52;;;;;;;21.10;18.92;;;;;;;16.88;100.00;101529.63;4989931;28;20074;-72
2023/08/24 04:48:18;;;;;;;21.27;19.15;;;;;;;16.85;100.00;101525.25;5005389;28;20537;-73
2023/08/24 04:50:45;;;;;;;21.05;19.08;;;;;;;16.82;100.00;101524.47;4993147;28;20323;-73
2023/08/24 04:53:14;;;;;;;21.52;19.20;;;;;;;16.84;100.00;101528.81;4990958;28;20120;-73
2023/08/24 04:55:40;;;;;;;20.98;18.70;;;;;;;16.78;100.00;101519.25;5007066;28;20034;-73
2023/08/24 04:58:08;;;;;;;21.83;19.55;;;;;;;16.78;100.00;101521.91;5006201;28;20037;-72
2023/08/24 05:00:33;;;;;;;23.90;19.65;;;;;;;16.76;100.00;101520.19;4993013;28;20726;-72
2023/08/24 05:02:59;;;;;;;22.30;20.00;;;;;;;16.77;100.00;101521.94;5011432;28;20044;-72
2023/08/24 05:05:24;;;;;;;22.13;19.92;;;;;;;16.73;100.00;101509.69;4997492;28;20148;-72
2023/08/24 05:07:50;;;;;;;22.38;19.95;;;;;;;16.69;100.00;101516.84;4994809;28;20049;-72
2023/08/24 05:10:15;;;;;;;23.20;19.80;;;;;;;16.71;100.00;101508.88;4989485;28;20034;-73
2023/08/24 05:12:41;;;;;;;21.58;19.58;;;;;;;16.72;100.00;101513.25;4991702;28;20128;-73
2023/08/24 05:15:07;;;;;;;21.33;19.13;;;;;;;16.68;100.00;101516.88;4994867;28;20044;-72
2023/08/24 05:17:32;;;;;;;22.15;19.95;;;;;;;16.62;100.00;101524.09;4980489;28;20045;-72
2023/08/24 05:19:59;;;;;;;22.80;20.40;;;;;;;16.72;100.00;101523.84;4996599;28;20044;-73
2023/08/24 05:22:24;;;;;;;22.48;20.15;;;;;;;16.73;100.00;101531.72;5008652;28;20414;-73
2023/08/24 05:24:50;;;;;;;22.30;20.00;;;;;;;16.88;100.00;101527.84;5011127;28;20032;-73
2023/08/24 05:27:18;;;;;;;22.58;20.23;;;;;;;16.95;100.00;101528.53;5013127;28;20469;-73
2023/08/24 05:29:43;;;;;;;23.20;20.63;;;;;;;16.93;100.00;101523.28;5014409;28;20021;-73
2023/08/24 05:32:08;;;;;;;22.70;20.27;;;;;;;17.06;100.00;101523.81;5014012;28;20397;-73
2023/08/24 05:34:34;;;;;;;25.90;21.48;;;;;;;17.05;100.00;101515.91;5005045;28;20053;-73
2023/08/24 05:37:00;;;;;;;23.42;20.83;;;;;;;17.10;100.00;101511.38;4997136;28;20030;-73
2023/08/24 05:39:26;;;;;;;24.55;21.77;;;;;;;17.20;100.00;101510.19;4994893;28;20026;-73
2023/08/24 05:41:52;;;;;;;23.15;20.75;;;;;;;17.30;100.00;101516.94;5010905;28;20392;-72
2023/08/24 05:44:21;;;;;;;22.63;20.20;;;;;;;17.37;100.00;101514.13;4994370;28;20038;-73
2023/08/24 05:46:47;;;;;;;22.23;20.15;;;;;;;17.43;100.00;101506.88;5028666;28;20028;-73
2023/08/24 05:49:13;;;;;;;23.15;20.65;;;;;;;17.53;100.00;101496.88;5014418;28;20025;-73
2023/08/24 05:51:38;;;;;;;23.52;21.02;;;;;;;17.57;100.00;101493.22;5013642;28;20444;-73
2023/08/24 05:54:04;;;;;;;22.85;20.50;;;;;;;17.70;100.00;101487.50;4981465;28;20033;-73
2023/08/24 05:56:29;;;;;;;23.35;21.05;;;;;;;17.75;100.00;101486.44;5011585;28;21299;-72
2023/08/24 05:58:57;;;;;;;22.17;19.92;;;;;;;17.92;100.00;101483.31;5013644;28;20083;-73
2023/08/24 06:01:22;;;;;;;21.52;19.50;;;;;;;18.02;100.00;101478.56;4997676;28;20466;-72
2023/08/24 06:03:49;;;;;;;21.58;19.52;;;;;;;18.14;100.00;101472.84;5000088;28;20053;-73
2023/08/24 06:06:15;;;;;;;22.40;20.05;;;;;;;18.34;100.00;101474.81;5013225;28;20486;-73
2023/08/24 06:08:40;;;;;;;24.38;19.48;;;;;;;18.54;99.16;101465.31;5009434;28;20053;-73
2023/08/24 06:11:06;;;;;;;22.25;19.63;;;;;;;18.71;98.06;101456.75;4993390;28;20030;-72
2023/08/24 06:13:32;;;;;;;20.13;18.13;;;;;;;19.10;96.27;101452.72;4980386;28;20058;-73
2023/08/24 06:15:58;;;;;;;23.88;19.73;;;;;;;19.48;95.40;101447.72;5011487;28;20029;-72
2023/08/24 06:18:23;;;;;;;19.30;17.48;;;;;;;19.57;94.13;101442.03;4997023;28;20092;-73
2023/08/24 06:20:49;;;;;;;19.95;17.88;;;;;;;19.62;92.81;101426.75;5001312;28;20088;-72
2023/08/24 06:23:17;;;;;;;20.52;18.52;;;;;;;19.87;93.19;101424.00;5013128;28;20112;-73
2023/08/24 06:25:44;;;;;;;19.10;17.10;;;;;;;20.24;89.52;101424.22;5012042;28;20183;-72
2023/08/24 06:28:11;;;;;;;19.27;17.27;;;;;;;20.50;89.87;101422.22;5008600;28;20462;-73
2023/08/24 06:30:47;;;;;;;17.92;16.05;;;;;;;20.97;86.54;101437.03;5029801;28;20474;-73
2023/08/24 06:33:12;;;;;;;18.27;16.13;;;;;;;21.34;84.35;101451.31;5013067;28;20038;-73
2023/08/24 06:35:38;;;;;;;21.45;16.50;;;;;;;21.62;84.89;101459.75;4979041;28;20488;-73
2023/08/24 06:38:04;;;;;;;21.05;15.98;;;;;;;21.97;83.55;101458.94;4993541;28;20031;-73
2023/08/24 06:40:30;;;;;;;17.65;15.93;;;;;;;22.26;81.90;101456.63;5013043;28;20033;-73
2023/08/24 06:42:56;;;;;;;17.30;15.15;;;;;;;22.36;80.22;101451.69;5028356;28;20037;-73
2023/08/24 06:45:21;;;;;;;20.60;14.90;;;;;;;22.61;76.86;101456.59;4996974;28;20053;-73
2023/08/24 06:47:48;;;;;;;16.48;14.70;;;;;;;22.97;76.09;101453.78;5017687;28;20438;-74
2023/08/24 06:50:14;;;;;;;17.98;14.93;;;;;;;22.71;75.94;101452.50;5013015;28;20030;-74
2023/08/24 06:52:41;;;;;;;15.85;14.27;;;;;;;23.18;73.99;101457.09;5004595;28;20061;-73
2023/08/24 06:55:09;;;;;;;15.68;14.18;;;;;;;23.20;74.56;101451.69;5012816;28;20117;-71
2023/08/24 06:57:34;;;;;;;16.25;13.85;;;;;;;23.00;73.45;101444.72;5011187;28;20036;-73
2023/08/24 07:00:00;;;;;;;15.15;13.32;;;;;;;22.67;71.97;101445.63;4994308;28;20022;-73
2023/08/24 07:02:25;;;;;;;20.08;13.35;;;;;;;23.04;71.28;101450.78;4982024;28;20038;-76
2023/08/24 07:04:51;;;;;;;16.02;13.25;;;;;;;22.82;71.04;101450.13;4994770;28;20454;-76
2023/08/24 07:07:16;;;;;;;16.45;12.88;;;;;;;22.90;71.88;101440.81;4995839;28;20034;-75
2023/08/24 07:09:42;;;;;;;16.13;12.25;;;;;;;23.09;70.98;101446.91;4979576;28;20037;-75
2023/08/24 07:12:10;;;;;;;14.63;13.13;;;;;;;23.48;70.46;101447.47;5011383;28;20045;-75
2023/08/24 07:14:36;;;;;;;14.27;12.73;;;;;;;23.49;69.63;101444.72;5012721;28;20468;-76
2023/08/24 07:17:02;;;;;;;14.25;12.75;;;;;;;23.66;71.73;101437.53;5012349;28;20037;-73
2023/08/24 07:19:27;;;;;;;14.25;12.05;;;;;;;23.30;68.38;101439.53;5012086;28;20042;-73
2023/08/24 07:21:53;;;;;;;16.85;12.57;;;;;;;23.25;69.90;101436.25;4995859;28;20062;-73
2023/08/24 07:24:20;;;;;;;17.10;12.77;;;;;;;23.27;69.80;101436.16;4995720;28;20030;-74
2023/08/24 07:26:46;;;;;;;16.27;12.55;;;;;;;23.43;71.56;101434.38;4991819;28;20157;-73
2023/08/24 07:29:11;;;;;;;16.05;12.85;;;;;;;23.61;70.19;101427.09;5011731;28;20449;-73
2023/08/24 07:31:37;;;;;;;14.55;12.85;;;;;;;23.43;68.08;101423.69;5011793;28;20017;-73
2023/08/24 07:34:03;;;;;;;13.25;11.98;;;;;;;23.47;67.75;101410.97;5015803;28;20041;-73
2023/08/24 07:36:30;;;;;;;13.57;12.18;;;;;;;23.38;66.63;101415.03;4996038;28;20038;-72
2023/08/24 07:38:55;;;;;;;13.07;11.68;;;;;;;23.26;67.47;101427.28;4992377;28;20038;-73
2023/08/24 07:41:21;;;;;;;12.80;11.50;;;;;;;23.33;66.89;101425.13;5023759;28;20104;-73
2023/08/24 07:43:46;;;;;;;14.30;12.35;;;;;;;23.32;67.35;101421.59;4994940;28;20030;-73
2023/08/24 07:46:12;;;;;;;15.02;12.68;;;;;;;23.23;68.94;101421.25;4992336;28;20076;-72
2023/08/24 07:48:37;;;;;;;14.70;12.68;;;;;;;23.38;67.54;101424.88;4995038;28;20315;-73
2023/08/24 07:51:02;;;;;;;14.25;12.85;;;;;;;23.32;70.97;101418.91;5010279;28;20048;-73
2023/08/24 07:53:28;;;;;;;14.73;13.25;;;;;;;23.42;68.60;101418.38;4978902;28;20030;-73
2023/08/24 07:55:57;;;;;;;13.70;12.30;;;;;;;22.93;68.63;101413.94;4976015;28;20088;-72
2023/08/24 07:58:23;;;;;;;16.90;13.15;;;;;;;23.18;69.57;101418.84;4994488;28;20095;-73
2023/08/24 08:00:52;;;;;;;15.48;12.90;;;;;;;23.22;69.30;101406.16;4992950;28;20031;-73
2023/08/24 08:03:18;;;;;;;16.48;13.10;;;;;;;23.36;70.22;101411.59;4991577;28;20058;-73
2023/08/24 08:05:44;;;;;;;14.20;12.57;;;;;;;23.39;68.35;101416.78;5003125;28;20116;-73
2023/08/24 08:08:10;;;;;;;15.40;13.80;;;;;;;23.63;72.87;101414.50;4994824;28;20041;-73
2023/08/24 08:10:35;;;;;;;15.93;13.35;;;;;;;23.46;68.93;101418.16;4991945;28;20081;-73
2023/08/24 08:13:01;;;;;;;13.98;12.57;;;;;;;23.40;67.36;101410.44;4991925;28;20045;-72
2023/08/24 08:15:26;;;;;;;13.90;12.50;;;;;;;23.56;69.83;101412.25;5011689;28;20053;-72
2023/08/24 08:17:52;;;;;;;13.88;12.43;;;;;;;23.50;66.98;101417.03;5026125;28;20116;-72
2023/08/24 08:20:19;;;;;;;14.07;12.73;;;;;;;23.61;68.51;101420.88;5001152;28;20050;-72
2023/08/24 08:22:45;;;;;;;14.43;12.88;;;;;;;23.54;68.54;101417.69;5007957;28;20125;-73
2023/08/24 08:25:12;;;;;;;15.15;13.02;;;;;;;23.73;67.88;101422.84;5011727;28;20040;-72
2023/08/24 08:27:37;;;;;;;14.32;12.82;;;;;;;23.92;67.93;101408.41;5007108;28;20474;-72
2023/08/24 08:30:04;;;;;;;16.60;13.75;;;;;;;23.97;67.72;101411.69;4991425;28;20034;-72
2023/08/24 08:32:30;;;;;;;14.32;12.45;;;;;;;24.14;66.32;101405.34;4991620;28;20037;-72
2023/08/24 08:34:58;;;;;;;15.45;13.35;;;;;;;23.95;67.72;101398.41;4991778;28;20120;-72
2023/08/24 08:37:25;;;;;;;17.15;13.00;;;;;;;24.01;68.55;101395.34;5011667;28;20099;-73
2023/08/24 08:39:51;;;;;;;14.40;12.82;;;;;;;23.92;67.18;101387.00;5023868;28;20037;-72
2023/08/24 08:42:16;;;;;;;15.10;13.57;;;;;;;23.98;68.10;101371.44;5014022;28;20053;-73
2023/08/24 08:44:45;;;;;;;15.18;13.50;;;;;;;24.11;67.54;101373.41;4995907;28;20134;-73
2023/08/24 08:47:14;;;;;;;16.50;12.32;;;;;;;24.16;68.09;101373.97;5015068;28;20030;-73
2023/08/24 08:49:43;;;;;;;14.40;12.95;;;;;;;24.33;67.90;101356.88;4998462;28;20022;-73
2023/08/24 08:52:09;;;;;;;13.50;12.10;;;;;;;24.22;66.03;101357.50;5014323;28;20038;-74
2023/08/24 08:54:34;;;;;;;13.30;11.90;;;;;;;24.23;66.85;101339.66;4998815;28;20133;-72
2023/08/24 08:57:01;;;;;;;14.15;12.75;;;;;;;24.23;67.93;101331.63;4981159;28;20026;-74
2023/08/24 08:59:30;;;;;;;20.15;13.68;;;;;;;24.23;67.84;101320.91;5018274;28;20402;-74
2023/08/24 09:01:57;;;;;;;14.68;13.18;;;;;;;24.30;67.51;101327.59;5014576;28;20116;-72
2023/08/24 09:04:24;;;;;;;13.45;12.15;;;;;;;24.39;67.75;101316.31;5014759;28;20389;-73
2023/08/24 09:06:49;;;;;;;15.07;12.15;;;;;;;24.50;69.17;101312.97;5015569;28;20018;-72
2023/08/24 09:09:16;;;;;;;14.25;12.85;;;;;;;24.67;70.03;101309.25;4996327;28;20034;-72
2023/08/24 09:11:42;;;;;;;13.10;11.68;;;;;;;24.70;67.92;101304.53;4996881;28;20037;-73
2023/08/24 09:14:07;;;;;;;15.48;11.85;;;;;;;24.58;69.14;101293.72;5014457;28;20065;-73
2023/08/24 09:16:33;;;;;;;14.15;12.68;;;;;;;24.66;67.96;101280.72;5011370;28;20057;-73
2023/08/24 09:18:58;;;;;;;15.00;12.98;;;;;;;24.64;67.56;101279.94;4991638;28;20046;-73
2023/08/24 09:21:25;;;;;;;16.52;13.15;;;;;;;24.69;70.35;101270.66;4997808;28;20524;-73
2023/08/24 09:23:55;;;;;;;15.82;13.15;;;;;;;24.64;68.69;101271.91;4997821;28;20038;-73
2023/08/24 09:26:34;;;;;;;14.30;12.82;;;;;;;24.66;68.95;101264.66;5013643;28;20026;-73
2023/08/24 09:29:10;;;;;;;15.35;13.75;;;;;;;24.58;67.83;101261.56;5027484;28;20049;-73
2023/08/24 09:31:37;;;;;;;14.55;13.15;;;;;;;24.61;68.56;101245.31;5006948;28;20017;-73
2023/08/24 09:34:06;;;;;;;15.65;13.77;;;;;;;24.68;69.87;101246.63;4993313;28;20042;-73
2023/08/24 09:36:38;;;;;;;16.23;14.57;;;;;;;24.72;68.29;101248.16;4991846;28;20026;-75
2023/08/24 09:39:04;;;;;;;14.50;12.98;;;;;;;24.77;69.35;101254.09;5014300;28;20026;-73
2023/08/24 09:41:49;;;;;;;15.00;13.15;;;;;;;24.81;68.44;101263.66;5012332;28;20041;-72
2023/08/24 09:44:16;;;;;;;15.35;11.85;;;;;;;24.91;67.61;101277.28;5001852;28;20030;-73
2023/08/24 09:46:43;;;;;;;14.60;11.75;;;;;;;25.01;66.43;101288.28;5027955;28;20041;-73
2023/08/24 09:49:11;;;;;;;12.77;11.07;;;;;;;25.02;68.32;101308.78;5029933;28;20026;-73
2023/08/24 09:51:38;;;;;;;15.10;11.60;;;;;;;25.27;67.42;101318.75;4996355;28;20026;-72
2023/08/24 09:54:08;;;;;;;14.35;12.95;;;;;;;25.28;67.08;101317.78;4994219;28;20038;-73
2023/08/24 09:56:37;;;;;;;14.85;13.27;;;;;;;25.33;68.56;101312.13;5009149;28;20036;-74
2023/08/24 09:59:21;;;;;;;13.25;11.85;;;;;;;25.35;67.38;101308.38;4997806;28;20426;-73
2023/08/24 10:01:48;;;;;;;12.60;11.30;;;;;;;25.18;65.76;101309.47;4994153;28;20100;-72
2023/08/24 10:04:21;;;;;;;13.30;11.48;;;;;;;25.27;66.82;101307.16;4997494;28;20485;-73
2023/08/24 10:06:51;;;;;;;13.85;12.40;;;;;;;25.28;67.03;101309.72;5005145;28;20100;-72
2023/08/24 10:09:27;;;;;;;15.35;11.75;;;;;;;25.38;66.32;101305.50;5029981;28;20017;-72
2023/08/24 10:12:00;;;;;;;12.15;10.55;;;;;;;25.48;66.66;101321.84;5013154;28;20076;-72
2023/08/24 10:14:35;;;;;;;11.18;10.07;;;;;;;25.30;66.48;101323.91;5014921;28;20029;-72
2023/08/24 10:17:02;;;;;;;14.15;10.80;;;;;;;25.29;68.01;101315.97;5014530;28;20025;-72
2023/08/24 10:19:29;;;;;;;12.82;11.23;;;;;;;25.20;68.29;101315.63;5013215;28;20065;-72
2023/08/24 10:21:57;;;;;;;15.43;10.82;;;;;;;25.23;68.38;101312.72;5012214;28;20516;-72
2023/08/24 10:24:22;;;;;;;13.98;11.10;;;;;;;25.30;69.66;101312.31;5012685;28;20374;-72
2023/08/24 10:26:49;;;;;;;11.82;10.05;;;;;;;25.27;68.44;101308.03;4995050;28;20037;-72
2023/08/24 10:29:17;;;;;;;13.45;10.75;;;;;;;25.35;68.94;101308.38;5012772;28;20477;-72
2023/08/24 10:31:43;;;;;;;15.75;10.75;;;;;;;25.29;68.00;101299.88;5019733;28;20112;-72
2023/08/24 10:34:09;;;;;;;14.05;10.25;;;;;;;25.25;67.68;101297.38;4996279;28;20042;-72
2023/08/24 10:36:38;;;;;;;13.95;11.07;;;;;;;25.24;68.31;101298.38;5008649;28;20113;-72
2023/08/24 10:39:05;;;;;;;11.83;10.13;;;;;;;25.25;69.24;101301.91;5029219;28;20022;-72
2023/08/24 10:41:49;;;;;;;14.23;10.50;;;;;;;25.11;68.53;101299.25;5011887;28;20026;-72
2023/08/24 10:44:37;;;;;;;10.95;8.80;;;;;;;24.89;70.05;101308.72;5009092;28;20034;-72
2023/08/24 10:47:22;;;;;;;9.23;7.82;;;;;;;24.84;69.50;101322.41;5024635;28;20038;-71
2023/08/24 10:49:54;;;;;;;8.07;7.22;;;;;;;24.65;71.20;101320.06;4996452;28;20036;-71
2023/08/24 10:52:39;;;;;;;9.15;6.40;;;;;;;24.61;68.56;101325.69;5018695;28;20047;-71
2023/08/24 10:55:21;;;;;;;9.07;6.20;;;;;;;24.48;69.69;101329.13;4998844;28;20052;-71
2023/08/24 10:58:02;;;;;;;9.35;6.50;;;;;;;24.39;69.91;101332.38;5011611;28;20032;-71
2023/08/24 11:00:30;;;;;;;7.57;5.03;;;;;;;24.31;69.66;101326.63;4995707;28;20023;-70
2023/08/24 11:02:56;;;;;;;8.45;6.15;;;;;;;24.24;71.68;101323.50;5018680;28;20029;-71
2023/08/24 11:05:30;;;;;;;10.75;5.97;;;;;;;24.26;71.90;101321.56;5012545;28;20088;-71
2023/08/24 11:07:59;;;;;;;7.78;5.25;;;;;;;24.24;72.08;101306.53;5009552;28;20030;-71
2023/08/24 11:10:32;;;;;;;9.38;5.13;;;;;;;24.26;71.98;101281.41;5012861;28;20053;-71
2023/08/24 11:13:03;;;;;;;7.57;4.90;;;;;;;24.37;71.48;101291.44;5010339;28;20482;-71
2023/08/24 11:15:33;;;;;;;8.40;5.50;;;;;;;24.52;71.66;101306.56;5011747;28;20413;-71
2023/08/24 11:18:25;;;;;;;8.98;5.47;;;;;;;24.55;71.72;101309.03;5011873;28;20161;-70
2023/08/24 11:21:01;;;;;;;10.82;5.70;;;;;;;24.66;73.21;101312.88;4996387;28;20033;-71
2023/08/24 11:23:27;;;;;;;11.07;6.25;;;;;;;24.74;72.69;101305.22;4995220;28;20037;-71
2023/08/24 11:25:57;;;;;;;9.30;6.03;;;;;;;24.68;72.46;101302.91;5013668;28;20041;-70
2023/08/24 11:28:23;;;;;;;10.27;6.97;;;;;;;24.60;72.02;101303.41;5012487;28;20036;-70
2023/08/24 11:30:50;;;;;;;11.55;6.53;;;;;;;24.55;71.11;101294.75;5012100;28;20022;-71
2023/08/24 11:33:17;;;;;;;10.95;6.78;;;;;;;24.54;72.19;101283.19;5011642;28;20043;-70
2023/08/24 11:35:45;;;;;;;8.57;7.00;;;;;;;24.46;70.73;101279.28;4992847;28;20034;-70
2023/08/24 11:38:11;;;;;;;13.07;7.55;;;;;;;24.39;71.22;101257.38;5005567;28;20030;-70
2023/08/24 11:40:37;;;;;;;9.38;7.05;;;;;;;24.33;70.77;101250.59;5011900;28;20021;-70